createdAt,value
2022-10-31T00:00:23.622Z,100728.13
2022-10-31T00:01:26.198Z,100733.75
2022-10-31T00:02:27.760Z,100732.91
2022-10-31T00:03:29.328Z,100728.97
2022-10-31T00:04:30.758Z,100727.81
2022-10-31T00:05:32.258Z,100732.63
2022-10-31T00:06:33.818Z,100731.78
2022-10-31T00:07:35.299Z,100732.91
2022-10-31T00:08:36.900Z,100739.69
2022-10-31T00:09:38.349Z,100725.59
2022-10-31T00:10:40.127Z,100740.81
2022-10-31T00:11:41.647Z,100732.94
2022-10-31T00:12:43.140Z,100741.38
2022-10-31T00:13:44.575Z,100730.72
2022-10-31T00:14:46.042Z,100733.00
2022-10-31T00:15:47.478Z,100726.28
2022-10-31T00:16:48.938Z,100730.25
2022-10-31T00:17:50.500Z,100731.06
2022-10-31T00:18:52.337Z,100729.09
2022-10-31T00:19:53.759Z,100726.28
2022-10-31T00:21:01.591Z,100727.13
2022-10-31T00:22:03.167Z,100731.91
2022-10-31T00:23:04.841Z,100734.72
2022-10-31T00:24:06.494Z,100731.06
2022-10-31T00:25:08.169Z,100731.06
2022-10-31T00:26:09.635Z,100730.25
2022-10-31T00:27:11.178Z,100739.81
2022-10-31T00:28:13.244Z,100735.31
2022-10-31T00:29:14.798Z,100729.97
2022-10-31T00:30:16.518Z,100735.59
2022-10-31T00:31:18.123Z,100730.25
2022-10-31T00:32:19.600Z,100731.94
2022-10-31T00:33:21.073Z,100729.72
2022-10-31T00:34:23.046Z,100733.66
2022-10-31T00:35:24.498Z,100732.00
2022-10-31T00:36:25.966Z,100743.25
2022-10-31T00:37:27.868Z,100741.56
2022-10-31T00:38:29.314Z,100739.06
2022-10-31T00:39:30.830Z,100745.53
2022-10-31T00:40:32.417Z,100747.78
2022-10-31T00:41:33.906Z,100741.31
2022-10-31T00:42:35.426Z,100738.78
2022-10-31T00:43:36.891Z,100740.47
2022-10-31T00:44:38.377Z,100738.78
2022-10-31T00:45:39.832Z,100748.94
2022-10-31T00:46:41.512Z,100747.22
2022-10-31T00:47:42.952Z,100742.72
2022-10-31T00:48:44.396Z,100746.69
2022-10-31T00:49:45.956Z,100748.66
2022-10-31T00:50:47.495Z,100744.16
2022-10-31T00:51:49.088Z,100742.78
2022-10-31T00:52:50.670Z,100727.94
2022-10-31T00:53:52.124Z,100745.03
2022-10-31T00:54:53.755Z,100741.38
2022-10-31T00:55:55.455Z,100746.19
2022-10-31T00:56:58.169Z,100747.84
2022-10-31T00:58:00.313Z,100743.06
2022-10-31T00:59:02.153Z,100739.41
2022-10-31T01:00:03.969Z,100737.44
2022-10-31T01:01:05.530Z,100730.97
2022-10-31T01:02:07.316Z,100743.91
2022-10-31T01:03:08.912Z,100745.03
2022-10-31T01:04:13.596Z,100738.28
2022-10-31T01:05:15.080Z,100738.56
2022-10-31T01:06:17.088Z,100743.06
2022-10-31T01:07:18.537Z,100748.69
2022-10-31T01:08:20.015Z,100744.22
2022-10-31T01:09:22.518Z,100746.19
2022-10-31T01:10:24.024Z,100746.19
2022-10-31T01:11:26.943Z,100745.03
2022-10-31T01:12:28.419Z,100747.03
2022-10-31T01:13:29.992Z,100740.56
2022-10-31T01:14:31.454Z,100746.19
2022-10-31T01:15:33.002Z,100746.19
2022-10-31T01:16:34.468Z,100740.00
2022-10-31T01:17:35.953Z,100742.81
2022-10-31T01:18:37.823Z,100743.97
2022-10-31T01:19:39.316Z,100747.63
2022-10-31T01:20:40.885Z,100738.59
2022-10-31T01:21:42.368Z,100739.44
2022-10-31T01:22:43.845Z,100738.59
2022-10-31T01:23:45.348Z,100740.56
2022-10-31T01:24:48.353Z,100741.41
2022-10-31T01:25:49.827Z,100742.53
2022-10-31T01:26:51.350Z,100748.16
2022-10-31T01:27:52.876Z,100736.06
2022-10-31T01:29:00.998Z,100744.50
2022-10-31T01:30:03.566Z,100741.69
2022-10-31T01:31:06.290Z,100745.34
2022-10-31T01:32:09.297Z,100736.06
2022-10-31T01:33:10.778Z,100736.06
2022-10-31T01:34:16.269Z,100730.44
2022-10-31T01:35:17.724Z,100736.06
2022-10-31T01:36:23.718Z,100736.06
2022-10-31T01:37:27.940Z,100740.03
2022-10-31T01:38:29.401Z,100734.41
2022-10-31T01:39:30.856Z,100740.88
2022-10-31T01:40:32.296Z,100735.22
2022-10-31T01:41:34.771Z,100740.03
2022-10-31T01:42:38.002Z,100737.22
2022-10-31T01:43:46.351Z,100742.84
2022-10-31T01:44:49.531Z,100735.53
2022-10-31T01:45:52.560Z,100738.94
2022-10-31T01:47:00.509Z,100744.56
2022-10-31T01:48:02.115Z,100738.09
2022-10-31T01:49:10.113Z,100728.28
2022-10-31T01:50:13.551Z,100743.19
2022-10-31T01:51:15.073Z,100739.53
2022-10-31T01:52:21.365Z,100745.16
2022-10-31T01:53:25.993Z,100737.00
2022-10-31T01:54:31.461Z,100742.63
2022-10-31T01:55:36.429Z,100741.75
2022-10-31T01:56:38.996Z,100743.47
2022-10-31T01:57:41.417Z,100742.91
2022-10-31T01:58:44.104Z,100740.91
2022-10-31T01:59:47.588Z,100740.91
2022-10-31T02:00:50.037Z,100742.06
2022-10-31T02:01:51.881Z,100748.81
2022-10-31T02:02:53.731Z,100747.13
2022-10-31T02:03:55.233Z,100736.72
2022-10-31T02:04:57.293Z,100737.03
2022-10-31T02:05:58.779Z,100738.75
2022-10-31T02:07:04.147Z,100733.97
2022-10-31T02:08:07.089Z,100743.22
2022-10-31T02:09:08.625Z,100739.59
2022-10-31T02:10:10.133Z,100739.59
2022-10-31T02:11:13.030Z,100744.38
2022-10-31T02:12:14.565Z,100739.59
2022-10-31T02:13:16.038Z,100743.53
2022-10-31T02:14:23.679Z,100743.53
2022-10-31T02:15:26.860Z,100751.38
2022-10-31T02:16:28.361Z,100745.75
2022-10-31T02:17:30.262Z,100745.75
2022-10-31T02:18:32.629Z,100741.28
2022-10-31T02:19:36.553Z,100748.56
2022-10-31T02:20:47.817Z,100738.47
2022-10-31T02:21:52.453Z,100739.31
2022-10-31T02:23:12.119Z,100744.09
2022-10-31T02:24:32.590Z,100743.22
2022-10-31T02:25:53.255Z,100748.00
2022-10-31T02:27:01.981Z,100740.69
2022-10-31T02:28:13.902Z,100745.47
2022-10-31T02:29:23.775Z,100737.34
2022-10-31T02:30:25.778Z,100741.28
2022-10-31T02:31:27.490Z,100742.41
2022-10-31T02:32:44.366Z,100742.72
2022-10-31T02:33:56.987Z,100744.69
2022-10-31T02:35:10.862Z,100745.81
2022-10-31T02:36:14.960Z,100751.44
2022-10-31T02:37:22.076Z,100743.00
2022-10-31T02:38:42.243Z,100748.06
2022-10-31T02:39:57.720Z,100754.25
2022-10-31T02:41:26.860Z,100748.09
2022-10-31T02:42:35.113Z,100756.53
2022-10-31T02:43:55.149Z,100750.34
2022-10-31T02:45:03.526Z,100741.91
2022-10-31T02:46:08.635Z,100753.47
2022-10-31T02:47:12.683Z,100749.81
2022-10-31T02:48:16.122Z,100738.56
2022-10-31T02:49:24.080Z,100748.41
2022-10-31T02:50:44.709Z,100750.94
2022-10-31T02:51:46.276Z,100741.13
2022-10-31T02:52:50.743Z,100740.28
2022-10-31T02:53:52.281Z,100745.91
2022-10-31T02:54:53.943Z,100745.06
2022-10-31T02:55:57.697Z,100732.44
2022-10-31T02:57:00.923Z,100734.41
2022-10-31T02:58:03.980Z,100729.06
2022-10-31T02:59:05.858Z,100733.00
2022-10-31T03:00:08.254Z,100739.75
2022-10-31T03:01:24.935Z,100729.66
2022-10-31T03:02:38.631Z,100731.63
2022-10-31T03:03:48.324Z,100726.84
2022-10-31T03:04:50.984Z,100735.28
2022-10-31T03:06:01.608Z,100728.53
2022-10-31T03:07:32.485Z,100737.25
2022-10-31T03:08:40.481Z,100731.63
2022-10-31T03:10:03.920Z,100730.75
2022-10-31T03:11:06.794Z,100726.00
2022-10-31T03:12:10.235Z,100735.28
2022-10-31T03:13:16.464Z,100727.69
2022-10-31T03:14:22.605Z,100727.69
2022-10-31T03:15:33.348Z,100736.13
2022-10-31T03:16:40.526Z,100725.72
2022-10-31T03:18:08.801Z,100729.66
2022-10-31T03:19:11.526Z,100727.69
2022-10-31T03:20:12.974Z,100734.16
2022-10-31T03:21:15.135Z,100731.63
2022-10-31T03:22:17.750Z,100727.94
2022-10-31T03:23:19.499Z,100726.00
2022-10-31T03:24:27.411Z,100722.31
2022-10-31T03:25:29.122Z,100728.81
2022-10-31T03:26:32.102Z,100735.28
2022-10-31T03:27:33.820Z,100721.22
2022-10-31T03:28:36.780Z,100720.09
2022-10-31T03:29:39.598Z,100721.22
2022-10-31T03:30:42.518Z,100717.56
2022-10-31T03:31:45.847Z,100720.38
2022-10-31T03:32:49.945Z,100725.13
2022-10-31T03:33:51.479Z,100719.50
2022-10-31T03:34:53.041Z,100727.09
2022-10-31T03:35:55.406Z,100724.28
2022-10-31T03:36:57.443Z,100722.91
2022-10-31T03:37:58.910Z,100722.91
2022-10-31T03:39:01.298Z,100717.56
2022-10-31T03:40:03.007Z,100728.53
2022-10-31T03:41:06.644Z,100727.97
2022-10-31T03:42:26.142Z,100727.44
2022-10-31T03:43:28.894Z,100719.00
2022-10-31T03:44:30.952Z,100725.47
2022-10-31T03:45:37.007Z,100724.63
2022-10-31T03:46:39.202Z,100726.88
2022-10-31T03:47:40.808Z,100729.69
2022-10-31T03:48:42.389Z,100728.84
2022-10-31T03:49:43.972Z,100727.16
2022-10-31T03:50:45.524Z,100727.47
2022-10-31T03:52:10.340Z,100729.69
2022-10-31T03:53:16.126Z,100728.31
2022-10-31T03:54:28.418Z,100724.66
2022-10-31T03:55:35.456Z,100722.13
2022-10-31T03:56:47.889Z,100725.22
2022-10-31T03:57:53.307Z,100730.84
2022-10-31T03:58:58.007Z,100724.38
2022-10-31T04:00:01.025Z,100725.22
2022-10-31T04:01:02.918Z,100714.84
2022-10-31T04:02:06.571Z,100726.91
2022-10-31T04:03:11.893Z,100724.09
2022-10-31T04:04:16.151Z,100721.28
2022-10-31T04:05:17.670Z,100725.78
2022-10-31T04:06:19.260Z,100728.59
2022-10-31T04:07:20.748Z,100729.44
2022-10-31T04:08:25.776Z,100726.31
2022-10-31T04:09:28.865Z,100731.94
2022-10-31T04:10:33.092Z,100722.38
2022-10-31T04:11:36.166Z,100732.78
2022-10-31T04:12:57.913Z,100731.94
2022-10-31T04:14:05.813Z,100733.38
2022-10-31T04:15:11.195Z,100721.28
2022-10-31T04:16:17.111Z,100733.38
2022-10-31T04:17:19.982Z,100740.13
2022-10-31T04:18:22.434Z,100738.16
2022-10-31T04:19:23.937Z,100726.06
2022-10-31T04:20:36.456Z,100732.53
2022-10-31T04:21:38.210Z,100740.13
2022-10-31T04:22:39.797Z,100732.53
2022-10-31T04:23:41.305Z,100736.47
2022-10-31T04:24:50.101Z,100734.78
2022-10-31T04:25:52.909Z,100727.50
2022-10-31T04:26:54.392Z,100732.28
2022-10-31T04:27:58.200Z,100731.97
2022-10-31T04:28:59.933Z,100728.63
2022-10-31T04:30:02.861Z,100731.72
2022-10-31T04:31:08.042Z,100732.00
2022-10-31T04:32:12.430Z,100725.84
2022-10-31T04:33:15.004Z,100730.03
2022-10-31T04:34:18.475Z,100737.63
2022-10-31T04:35:20.292Z,100733.69
2022-10-31T04:36:22.064Z,100726.94
2022-10-31T04:37:23.753Z,100734.53
2022-10-31T04:38:25.335Z,100731.72
2022-10-31T04:39:27.722Z,100737.34
2022-10-31T04:40:49.205Z,100736.50
2022-10-31T04:41:56.357Z,100725.56
2022-10-31T04:42:59.993Z,100733.13
2022-10-31T04:44:03.081Z,100722.47
2022-10-31T04:45:05.921Z,100722.19
2022-10-31T04:46:08.648Z,100726.69
2022-10-31T04:47:10.337Z,100729.19
2022-10-31T04:48:12.021Z,100724.41
2022-10-31T04:49:15.378Z,100726.94
2022-10-31T04:50:17.205Z,100729.75
2022-10-31T04:51:20.106Z,100739.03
2022-10-31T04:52:22.671Z,100732.56
2022-10-31T04:53:24.209Z,100725.81
2022-10-31T04:54:44.073Z,100730.31
2022-10-31T04:56:08.324Z,100725.81
2022-10-31T04:57:15.208Z,100728.63
2022-10-31T04:59:27.425Z,100717.38
2022-10-31T05:00:29.292Z,100721.88
2022-10-31T05:01:30.947Z,100723.56
2022-10-31T05:02:34.394Z,100719.91
2022-10-31T05:03:35.905Z,100726.38
2022-10-31T05:04:37.654Z,100721.59
2022-10-31T05:05:39.395Z,100728.03
2022-10-31T05:06:40.888Z,100723.28
2022-10-31T05:07:43.739Z,100726.38
2022-10-31T05:08:45.209Z,100725.22
2022-10-31T05:09:47.147Z,100719.06
2022-10-31T05:10:49.194Z,100729.16
2022-10-31T05:11:50.717Z,100721.03
2022-10-31T05:13:16.514Z,100727.78
2022-10-31T05:14:36.780Z,100716.53
2022-10-31T05:15:56.707Z,100724.13
2022-10-31T05:17:16.794Z,100715.69
2022-10-31T05:18:36.952Z,100723.59
2022-10-31T05:19:57.034Z,100717.41
2022-10-31T05:21:27.763Z,100717.69
2022-10-31T05:22:33.876Z,100719.13
2022-10-31T05:23:35.410Z,100716.56
2022-10-31T05:24:37.405Z,100711.78
2022-10-31T05:25:40.407Z,100711.78
2022-10-31T05:26:42.277Z,100717.97
2022-10-31T05:27:45.332Z,100719.13
2022-10-31T05:28:46.849Z,100716.31
2022-10-31T05:29:48.392Z,100712.94
2022-10-31T05:30:50.123Z,100708.16
2022-10-31T05:31:51.637Z,100712.09
2022-10-31T05:33:15.935Z,100715.19
2022-10-31T05:34:36.069Z,100707.63
2022-10-31T05:36:10.030Z,100712.38
2022-10-31T05:37:27.346Z,100711.56
2022-10-31T05:38:28.847Z,100715.19
2022-10-31T05:39:33.960Z,100704.81
2022-10-31T05:40:39.839Z,100714.06
2022-10-31T05:41:41.796Z,100710.16
2022-10-31T05:42:51.419Z,100708.19
2022-10-31T05:43:52.989Z,100706.22
2022-10-31T05:44:58.685Z,100715.50
2022-10-31T05:46:17.258Z,100704.25
2022-10-31T05:47:54.328Z,100709.59
2022-10-31T05:49:14.485Z,100704.81
2022-10-31T05:50:34.296Z,100701.16
2022-10-31T05:51:45.922Z,100707.63
2022-10-31T05:52:47.439Z,100691.06
2022-10-31T05:53:55.954Z,100701.16
2022-10-31T05:54:57.903Z,100701.16
2022-10-31T05:55:59.413Z,100703.97
2022-10-31T05:57:00.874Z,100701.16
2022-10-31T05:58:02.710Z,100702.00
2022-10-31T05:59:04.642Z,100703.97
2022-10-31T06:00:06.582Z,100707.63
2022-10-31T06:01:22.593Z,100698.34
2022-10-31T06:02:24.323Z,100693.84
2022-10-31T06:03:44.226Z,100705.66
2022-10-31T06:04:50.021Z,100703.97
2022-10-31T06:05:55.001Z,100708.47
2022-10-31T06:06:59.449Z,100709.59
2022-10-31T06:08:01.398Z,100702.00
2022-10-31T06:09:03.719Z,100702.84
2022-10-31T06:10:08.652Z,100703.69
2022-10-31T06:11:10.206Z,100707.31
2022-10-31T06:12:30.838Z,100706.50
2022-10-31T06:13:50.428Z,100702.84
2022-10-31T06:14:57.299Z,100707.31
2022-10-31T06:15:58.852Z,100718.56
2022-10-31T06:17:07.240Z,100708.47
2022-10-31T06:18:37.777Z,100710.13
2022-10-31T06:19:39.324Z,100714.63
2022-10-31T06:20:40.883Z,100714.63
2022-10-31T06:21:42.354Z,100712.09
2022-10-31T06:22:44.228Z,100715.47
2022-10-31T06:23:45.753Z,100709.84
2022-10-31T06:25:07.715Z,100711.81
2022-10-31T06:26:12.447Z,100711.53
2022-10-31T06:27:15.088Z,100700.59
2022-10-31T06:28:17.057Z,100701.97
2022-10-31T06:29:31.097Z,100701.97
2022-10-31T06:30:37.890Z,100708.44
2022-10-31T06:31:39.478Z,100707.59
2022-10-31T06:32:41.023Z,100708.44
2022-10-31T06:33:44.166Z,100713.22
2022-10-31T06:34:45.798Z,100710.94
2022-10-31T06:35:47.855Z,100712.63
2022-10-31T06:36:51.258Z,100709.56
2022-10-31T06:37:56.349Z,100712.09
2022-10-31T06:39:14.490Z,100709.81
2022-10-31T06:40:16.222Z,100713.47
2022-10-31T06:41:37.687Z,100710.09
2022-10-31T06:42:39.227Z,100705.31
2022-10-31T06:43:41.031Z,100709.78
2022-10-31T06:45:02.476Z,100717.38
2022-10-31T06:46:22.463Z,100721.28
2022-10-31T06:47:56.672Z,100720.72
2022-10-31T06:49:02.429Z,100716.47
2022-10-31T06:50:16.158Z,100719.03
2022-10-31T06:51:17.706Z,100720.72
2022-10-31T06:52:19.245Z,100717.91
2022-10-31T06:53:20.977Z,100717.31
2022-10-31T06:54:23.119Z,100717.31
2022-10-31T06:55:25.420Z,100714.50
2022-10-31T06:56:27.004Z,100701.59
2022-10-31T06:57:31.013Z,100724.03
2022-10-31T06:58:32.517Z,100722.91
2022-10-31T06:59:36.789Z,100721.47
2022-10-31T07:01:07.834Z,100720.09
2022-10-31T07:02:12.553Z,100724.84
2022-10-31T07:03:16.733Z,100722.56
2022-10-31T07:04:19.196Z,100724.78
2022-10-31T07:05:23.069Z,100711.03
2022-10-31T07:06:24.617Z,100720.00
2022-10-31T07:07:26.082Z,100714.63
2022-10-31T07:08:27.775Z,100718.84
2022-10-31T07:09:29.309Z,100725.00
2022-10-31T07:10:37.443Z,100722.78
2022-10-31T07:11:42.958Z,100730.03
2022-10-31T07:12:44.630Z,100730.28
2022-10-31T07:13:46.188Z,100722.13
2022-10-31T07:14:47.790Z,100726.91
2022-10-31T07:15:49.253Z,100730.50
2022-10-31T07:16:51.753Z,100724.88
2022-10-31T07:18:04.963Z,100714.16
2022-10-31T07:19:06.514Z,100726.78
2022-10-31T07:20:08.973Z,100729.25
2022-10-31T07:21:10.491Z,100721.03
2022-10-31T07:22:12.011Z,100721.88
2022-10-31T07:23:15.226Z,100717.84
2022-10-31T07:24:21.201Z,100723.75
2022-10-31T07:26:01.138Z,100719.16
2022-10-31T07:27:13.123Z,100722.50
2022-10-31T07:28:14.691Z,100717.63
2022-10-31T07:29:20.392Z,100719.28
2022-10-31T07:30:21.873Z,100718.09
2022-10-31T07:31:26.308Z,100724.22
2022-10-31T07:32:38.173Z,100719.38
2022-10-31T07:33:40.598Z,100717.94
2022-10-31T07:35:15.234Z,100713.03
2022-10-31T07:36:26.262Z,100705.56
2022-10-31T07:37:30.659Z,100712.00
2022-10-31T07:38:33.677Z,100715.91
2022-10-31T07:39:38.806Z,100713.88
2022-10-31T07:40:42.452Z,100717.47
2022-10-31T07:41:43.957Z,100714.34
2022-10-31T07:42:46.680Z,100711.22
2022-10-31T07:44:08.213Z,100720.47
2022-10-31T07:45:32.802Z,100716.41
2022-10-31T07:47:03.466Z,100709.94
2022-10-31T07:48:23.578Z,100716.06
2022-10-31T07:49:59.926Z,100715.94
2022-10-31T07:51:01.374Z,100713.03
2022-10-31T07:52:31.798Z,100710.97
2022-10-31T07:53:51.856Z,100714.03
2022-10-31T07:54:59.183Z,100712.91
2022-10-31T07:56:00.669Z,100713.44
2022-10-31T07:57:05.144Z,100717.63
2022-10-31T07:58:07.340Z,100712.22
2022-10-31T07:59:09.703Z,100703.16
2022-10-31T08:00:11.815Z,100706.22
2022-10-31T08:01:19.029Z,100709.78
2022-10-31T08:02:34.271Z,100710.25
2022-10-31T08:03:54.396Z,100722.84
2022-10-31T08:05:14.516Z,100724.75
2022-10-31T08:06:35.321Z,100718.16
2022-10-31T08:08:51.874Z,100714.44
2022-10-31T08:09:54.122Z,100721.78
2022-10-31T08:10:59.529Z,100726.28
2022-10-31T08:12:02.353Z,100733.06
2022-10-31T08:13:06.276Z,100727.09
2022-10-31T08:14:08.462Z,100732.75
2022-10-31T08:15:10.161Z,100720.63
2022-10-31T08:16:12.021Z,100728.25
2022-10-31T08:17:22.670Z,100722.28
2022-10-31T08:18:32.292Z,100718.31
2022-10-31T08:19:34.421Z,100708.69
2022-10-31T08:20:36.207Z,100703.06
2022-10-31T08:21:37.743Z,100705.56
2022-10-31T08:22:42.729Z,100703.88
2022-10-31T08:23:45.599Z,100707.56
2022-10-31T08:24:47.500Z,100705.25
2022-10-31T08:25:49.217Z,100711.44
2022-10-31T08:26:50.817Z,100708.91
2022-10-31T08:27:52.805Z,100710.00
2022-10-31T08:28:56.049Z,100710.22
2022-10-31T08:30:00.560Z,100711.25
2022-10-31T08:31:02.089Z,100711.78
2022-10-31T08:32:15.775Z,100715.69
2022-10-31T08:33:35.734Z,100706.81
2022-10-31T08:34:43.192Z,100714.66
2022-10-31T08:36:02.963Z,100715.09
2022-10-31T08:37:23.646Z,100709.66
2022-10-31T08:38:28.740Z,100710.78
2022-10-31T08:39:30.440Z,100704.50
2022-10-31T08:40:34.445Z,100712.84
2022-10-31T08:41:37.298Z,100714.53
2022-10-31T08:42:44.134Z,100710.56
2022-10-31T08:43:47.046Z,100711.09
2022-10-31T08:44:49.785Z,100711.09
2022-10-31T08:45:56.018Z,100703.16
2022-10-31T08:47:03.132Z,100707.03
2022-10-31T08:48:07.684Z,100712.03
2022-10-31T08:49:11.730Z,100710.38
2022-10-31T08:50:15.493Z,100705.03
2022-10-31T08:51:21.364Z,100697.91
2022-10-31T08:52:51.252Z,100701.25
2022-10-31T08:53:48.817Z,100701.81
2022-10-31T08:54:59.494Z,100696.34
2022-10-31T08:56:19.207Z,100697.19
2022-10-31T08:57:21.143Z,100697.19
2022-10-31T08:58:23.313Z,100692.47
2022-10-31T08:59:28.041Z,100677.06
2022-10-31T09:00:50.598Z,100691.53
2022-10-31T09:01:55.233Z,100692.56
2022-10-31T09:02:57.761Z,100693.94
2022-10-31T09:03:59.316Z,100695.31
2022-10-31T09:05:01.677Z,100687.34
2022-10-31T09:06:04.103Z,100693.53
2022-10-31T09:07:21.647Z,100689.22
2022-10-31T09:08:23.502Z,100690.81
2022-10-31T09:09:26.054Z,100690.50
2022-10-31T09:10:27.767Z,100682.53
2022-10-31T09:11:32.193Z,100689.22
2022-10-31T09:12:45.842Z,100686.31
2022-10-31T09:14:02.796Z,100680.00
2022-10-31T09:15:27.554Z,100682.72
2022-10-31T09:16:40.285Z,100683.78
2022-10-31T09:17:48.844Z,100690.47
2022-10-31T09:18:57.047Z,100688.16
2022-10-31T09:19:58.569Z,100679.88
2022-10-31T09:21:06.148Z,100684.63
2022-10-31T09:22:07.581Z,100683.97
2022-10-31T09:23:12.640Z,100675.69
2022-10-31T09:24:14.307Z,100682.69
2022-10-31T09:25:17.464Z,100675.25
2022-10-31T09:26:26.361Z,100684.78
2022-10-31T09:27:32.281Z,100686.13
2022-10-31T09:28:34.154Z,100685.81
2022-10-31T09:29:41.144Z,100681.19
2022-10-31T09:30:46.733Z,100676.88
2022-10-31T09:31:53.477Z,100676.56
2022-10-31T09:33:06.140Z,100666.25
2022-10-31T09:34:08.664Z,100679.28
2022-10-31T09:36:19.477Z,100676.97
2022-10-31T09:37:20.951Z,100668.97
2022-10-31T09:38:24.260Z,100669.81
2022-10-31T09:39:25.746Z,100668.97
2022-10-31T09:40:45.232Z,100668.66
2022-10-31T09:42:05.245Z,100665.00
2022-10-31T09:43:23.786Z,100668.97
2022-10-31T09:44:28.070Z,100659.13
2022-10-31T09:45:34.965Z,100666.81
2022-10-31T09:46:47.748Z,100659.47
2022-10-31T09:47:49.278Z,100663.44
2022-10-31T09:49:24.229Z,100654.94
2022-10-31T09:50:27.235Z,100662.28
2022-10-31T09:51:30.769Z,100656.41
2022-10-31T09:52:52.078Z,100656.41
2022-10-31T09:53:55.339Z,100657.25
2022-10-31T09:54:59.393Z,100653.91
2022-10-31T09:56:01.013Z,100650.75
2022-10-31T09:57:02.639Z,100648.75
2022-10-31T09:58:04.309Z,100650.97
2022-10-31T09:59:06.309Z,100651.81
2022-10-31T10:00:08.664Z,100650.31
2022-10-31T10:01:27.719Z,100654.50
2022-10-31T10:02:31.180Z,100647.69
2022-10-31T10:03:35.525Z,100648.19
2022-10-31T10:04:49.540Z,100654.03
2022-10-31T10:06:13.506Z,100651.75
2022-10-31T10:07:34.950Z,100647.75
2022-10-31T10:08:55.753Z,100647.44
2022-10-31T10:10:26.745Z,100643.09
2022-10-31T10:12:00.201Z,100652.28
2022-10-31T10:13:20.187Z,100651.03
2022-10-31T10:14:40.559Z,100654.53
2022-10-31T10:15:41.963Z,100643.63
2022-10-31T10:16:46.502Z,100646.31
2022-10-31T10:17:55.177Z,100645.03
2022-10-31T10:18:59.609Z,100646.72
2022-10-31T10:20:11.183Z,100651.59
2022-10-31T10:21:21.654Z,100646.91
2022-10-31T10:22:23.278Z,100647.16
2022-10-31T10:23:32.216Z,100640.09
2022-10-31T10:24:52.590Z,100645.44
2022-10-31T10:25:56.252Z,100641.44
2022-10-31T10:26:57.777Z,100638.47
2022-10-31T10:28:04.884Z,100634.78
2022-10-31T10:29:21.417Z,100639.13
2022-10-31T10:30:23.872Z,100643.34
2022-10-31T10:31:26.252Z,100640.31
2022-10-31T10:32:28.858Z,100638.81
2022-10-31T10:33:37.768Z,100640.81
2022-10-31T10:34:42.969Z,100640.13
2022-10-31T10:35:51.731Z,100631.75
2022-10-31T10:36:58.065Z,100631.94
2022-10-31T10:38:02.814Z,100635.28
2022-10-31T10:39:05.717Z,100623.41
2022-10-31T10:40:15.339Z,100623.41
2022-10-31T10:41:20.971Z,100622.56
2022-10-31T10:42:41.091Z,100623.41
2022-10-31T10:43:42.633Z,100624.72
2022-10-31T10:45:03.804Z,100614.19
2022-10-31T10:46:42.809Z,100619.53
2022-10-31T10:48:04.600Z,100610.31
2022-10-31T10:49:18.812Z,100605.97
2022-10-31T10:50:21.124Z,100603.63
2022-10-31T10:53:09.030Z,100599.44
2022-10-31T10:54:15.013Z,100598.59
2022-10-31T10:55:28.753Z,100597.75
2022-10-31T10:56:36.106Z,100597.09
2022-10-31T10:57:47.899Z,100592.94
2022-10-31T10:58:49.393Z,100593.09
2022-10-31T10:59:51.174Z,100589.56
2022-10-31T11:00:52.719Z,100583.88
2022-10-31T11:01:54.461Z,100587.72
2022-10-31T11:02:55.964Z,100587.38
2022-10-31T11:03:57.418Z,100586.53
2022-10-31T11:04:59.228Z,100592.91
2022-10-31T11:06:02.428Z,100587.91
2022-10-31T11:07:07.646Z,100585.41
2022-10-31T11:08:09.120Z,100582.03
2022-10-31T11:09:11.633Z,100580.03
2022-10-31T11:10:15.054Z,100584.56
2022-10-31T11:11:31.431Z,100580.22
2022-10-31T11:12:33.293Z,100586.59
2022-10-31T11:13:34.986Z,100584.06
2022-10-31T11:15:05.470Z,100583.22
2022-10-31T11:16:08.181Z,100576.88
2022-10-31T11:17:29.052Z,100581.03
2022-10-31T11:18:50.742Z,100572.66
2022-10-31T11:20:02.373Z,100576.69
2022-10-31T11:21:05.194Z,100575.50
2022-10-31T11:22:07.736Z,100566.63
2022-10-31T11:23:17.466Z,100569.97
2022-10-31T11:24:27.188Z,100569.13
2022-10-31T11:25:28.721Z,100565.09
2022-10-31T11:26:30.160Z,100563.63
2022-10-31T11:27:31.614Z,100568.78
2022-10-31T11:28:35.271Z,100563.63
2022-10-31T11:29:37.725Z,100567.78
2022-10-31T11:30:52.489Z,100571.13
2022-10-31T11:31:54.932Z,100556.56
2022-10-31T11:32:56.378Z,100570.28
2022-10-31T11:34:08.067Z,100568.63
2022-10-31T11:35:10.925Z,100566.94
2022-10-31T11:36:16.315Z,100564.94
2022-10-31T11:37:19.179Z,100560.44
2022-10-31T11:38:22.058Z,100553.56
2022-10-31T11:39:23.954Z,100558.41
2022-10-31T11:40:25.967Z,100568.47
2022-10-31T11:41:27.528Z,100567.13
2022-10-31T11:42:30.251Z,100569.47
2022-10-31T11:43:31.757Z,100564.97
2022-10-31T11:44:33.663Z,100557.25
2022-10-31T11:45:35.382Z,100558.59
2022-10-31T11:46:40.687Z,100557.75
2022-10-31T11:47:42.891Z,100551.72
2022-10-31T11:48:47.590Z,100548.88
2022-10-31T11:49:51.622Z,100542.88
2022-10-31T11:50:56.765Z,100536.66
2022-10-31T11:51:59.129Z,100537.50
2022-10-31T11:53:00.635Z,100526.97
2022-10-31T11:54:03.565Z,100510.09
2022-10-31T11:55:13.885Z,100514.94
2022-10-31T11:56:15.798Z,100510.91
2022-10-31T11:57:46.412Z,100506.88
2022-10-31T11:59:02.284Z,100504.88
2022-10-31T12:00:04.568Z,100507.72
2022-10-31T12:01:26.897Z,100510.91
2022-10-31T12:02:28.557Z,100509.72
2022-10-31T12:03:30.031Z,100513.06
2022-10-31T12:04:39.706Z,100508.72
2022-10-31T12:05:41.236Z,100511.22
2022-10-31T12:06:43.362Z,100508.88
2022-10-31T12:07:44.983Z,100504.34
2022-10-31T12:08:47.356Z,100508.88
2022-10-31T12:09:48.845Z,100502.03
2022-10-31T12:10:53.094Z,100500.84
2022-10-31T12:12:06.496Z,100507.72
2022-10-31T12:13:07.948Z,100501.50
2022-10-31T12:14:13.867Z,100501.50
2022-10-31T12:15:18.130Z,100500.34
2022-10-31T12:16:21.408Z,100498.66
2022-10-31T12:17:26.438Z,100504.03
2022-10-31T12:18:36.923Z,100487.78
2022-10-31T12:20:01.680Z,100492.66
2022-10-31T12:21:08.959Z,100481.59
2022-10-31T12:22:19.420Z,100479.94
2022-10-31T12:23:25.133Z,100470.91
2022-10-31T12:24:33.669Z,100467.56
2022-10-31T12:25:35.169Z,100463.03
2022-10-31T12:26:48.806Z,100463.03
2022-10-31T12:27:54.217Z,100460.56
2022-10-31T12:28:58.512Z,100469.09
2022-10-31T12:30:09.424Z,100466.59
2022-10-31T12:31:10.865Z,100470.09
2022-10-31T12:32:18.065Z,100467.59
2022-10-31T12:33:29.760Z,100470.78
2022-10-31T12:34:38.426Z,100476.47
2022-10-31T12:36:46.290Z,100474.81
2022-10-31T12:37:47.783Z,100469.13
2022-10-31T12:38:55.093Z,100462.94
2022-10-31T12:40:23.049Z,100460.09
2022-10-31T12:41:27.167Z,100464.13
2022-10-31T12:42:28.641Z,100455.59
2022-10-31T12:43:35.094Z,100455.94
2022-10-31T12:44:41.310Z,100457.59